createdAt,value
2024-04-18T00:00:13.475Z,20.85
2024-04-18T00:01:13.278Z,20.82
2024-04-18T00:02:13.190Z,20.85
2024-04-18T00:03:13.263Z,20.82
2024-04-18T00:04:13.292Z,20.79
2024-04-18T00:05:13.250Z,20.71
2024-04-18T00:06:13.243Z,20.76
2024-04-18T00:07:13.204Z,20.71
2024-04-18T00:08:13.244Z,20.79
2024-04-18T00:09:13.232Z,20.76
2024-04-18T00:10:13.239Z,20.71
2024-04-18T00:11:13.245Z,20.80
2024-04-18T00:12:16.099Z,20.77
2024-04-18T00:13:13.215Z,20.76
2024-04-18T00:14:13.228Z,20.74
2024-04-18T00:15:13.303Z,20.76
2024-04-18T00:16:13.298Z,20.81
2024-04-18T00:17:13.254Z,20.77
2024-04-18T00:18:34.323Z,20.77
2024-04-18T00:19:13.224Z,20.79
2024-04-18T00:20:13.257Z,20.76
2024-04-18T00:21:49.079Z,20.80
2024-04-18T00:22:13.229Z,20.77
2024-04-18T00:23:13.232Z,20.77
2024-04-18T00:24:13.264Z,20.82
2024-04-18T00:25:13.261Z,20.76
2024-04-18T00:26:13.233Z,20.85
2024-04-18T00:27:13.253Z,20.77
2024-04-18T00:28:13.227Z,20.77
2024-04-18T00:29:13.235Z,20.77
2024-04-18T00:30:13.278Z,20.79
2024-04-18T00:31:13.243Z,20.80
2024-04-18T00:32:13.257Z,20.80
2024-04-18T00:33:13.297Z,20.85
2024-04-18T00:34:13.237Z,20.82
2024-04-18T00:35:13.260Z,20.82
2024-04-18T00:36:13.307Z,20.83
2024-04-18T00:37:13.244Z,20.80
2024-04-18T00:38:13.315Z,20.79
2024-04-18T00:39:13.247Z,20.79
2024-04-18T00:40:16.059Z,20.79
2024-04-18T00:41:13.251Z,20.82
2024-04-18T00:42:13.259Z,20.79
2024-04-18T00:43:34.262Z,20.82
2024-04-18T00:44:13.264Z,20.79
2024-04-18T00:45:13.296Z,20.76
2024-04-18T00:46:24.062Z,20.74
2024-04-18T00:47:13.277Z,20.76
2024-04-18T00:48:13.357Z,20.70
2024-04-18T00:49:13.322Z,20.79
2024-04-18T00:50:13.279Z,20.77
2024-04-18T00:51:13.313Z,20.73
2024-04-18T00:52:13.252Z,20.73
2024-04-18T00:53:13.249Z,20.71
2024-04-18T00:54:13.260Z,20.71
2024-04-18T00:55:13.263Z,20.74
2024-04-18T00:56:15.924Z,20.77
2024-04-18T00:57:13.263Z,20.76
2024-04-18T00:58:13.305Z,20.76
2024-04-18T00:59:13.258Z,20.71
2024-04-18T01:00:13.300Z,20.73
2024-04-18T01:01:13.352Z,20.74
2024-04-18T01:02:14.062Z,20.73
2024-04-18T01:03:13.381Z,20.73
2024-04-18T01:04:13.390Z,20.65
2024-04-18T01:05:16.106Z,20.70
2024-04-18T01:06:13.310Z,20.71
2024-04-18T01:07:13.270Z,20.68
2024-04-18T01:08:20.061Z,20.70
2024-04-18T01:09:13.301Z,20.74
2024-04-18T01:10:13.271Z,20.65
2024-04-18T01:11:39.624Z,20.63
2024-04-18T01:12:13.326Z,20.62
2024-04-18T01:13:13.284Z,20.60
2024-04-18T01:14:37.078Z,20.63
2024-04-18T01:15:13.353Z,20.59
2024-04-18T01:16:13.364Z,20.66
2024-04-18T01:17:16.182Z,20.66
2024-04-18T01:18:14.481Z,20.68
2024-04-18T01:19:13.326Z,20.68
2024-04-18T01:20:13.322Z,20.65
2024-04-18T01:21:13.346Z,20.65
2024-04-18T01:22:13.327Z,20.66
2024-04-18T01:23:13.337Z,20.65
2024-04-18T01:24:13.398Z,20.66
2024-04-18T01:25:13.333Z,20.68
2024-04-18T01:26:13.346Z,20.66
2024-04-18T01:27:13.352Z,20.68
2024-04-18T01:28:13.348Z,20.63
2024-04-18T01:29:13.323Z,20.66
2024-04-18T01:30:13.341Z,20.72
2024-04-18T01:31:13.326Z,20.68
2024-04-18T01:32:13.332Z,20.68
2024-04-18T01:33:14.180Z,20.72
2024-04-18T01:34:13.387Z,20.68
2024-04-18T01:35:13.332Z,20.74
2024-04-18T01:36:27.599Z,20.68
2024-04-18T01:37:13.340Z,20.65
2024-04-18T01:38:13.360Z,20.72
2024-04-18T01:39:34.420Z,20.71
2024-04-18T01:40:13.361Z,20.70
2024-04-18T01:41:13.355Z,20.69
2024-04-18T01:42:13.374Z,20.69
2024-04-18T01:43:13.351Z,20.65
2024-04-18T01:44:13.370Z,20.66
2024-04-18T01:45:13.371Z,20.62
2024-04-18T01:46:13.363Z,20.69
2024-04-18T01:47:13.393Z,20.66
2024-04-18T01:48:13.640Z,20.63
2024-04-18T01:49:13.423Z,20.69
2024-04-18T01:50:13.362Z,20.65
2024-04-18T01:51:13.397Z,20.66
2024-04-18T01:52:13.372Z,20.68
2024-04-18T01:53:13.365Z,20.62
2024-04-18T01:54:13.388Z,20.63
2024-04-18T01:55:13.371Z,20.63
2024-04-18T01:56:13.358Z,20.66
2024-04-18T01:57:13.365Z,20.62
2024-04-18T01:58:20.087Z,20.65
2024-04-18T01:59:13.365Z,20.63
2024-04-18T02:00:13.481Z,20.60
2024-04-18T02:01:31.623Z,20.61
2024-04-18T02:02:13.367Z,20.69
2024-04-18T02:03:13.559Z,20.69
2024-04-18T02:04:20.227Z,20.61
2024-04-18T02:05:13.389Z,20.66
2024-04-18T02:06:13.400Z,20.66
2024-04-18T02:07:41.087Z,20.61
2024-04-18T02:08:13.375Z,20.65
2024-04-18T02:09:13.382Z,20.69
2024-04-18T02:10:13.373Z,20.61
2024-04-18T02:11:13.466Z,20.63
2024-04-18T02:12:13.414Z,20.66
2024-04-18T02:13:13.384Z,20.60
2024-04-18T02:14:13.389Z,20.57
2024-04-18T02:15:13.411Z,20.59
2024-04-18T02:16:13.388Z,20.65
2024-04-18T02:17:13.401Z,20.65
2024-04-18T02:18:13.427Z,20.63
2024-04-18T02:19:13.391Z,20.61
2024-04-18T02:20:13.439Z,20.63
2024-04-18T02:21:13.421Z,20.61
2024-04-18T02:22:13.427Z,20.67
2024-04-18T02:23:13.398Z,20.66
2024-04-18T02:24:13.435Z,20.60
2024-04-18T02:25:13.399Z,20.60
2024-04-18T02:26:14.099Z,20.59
2024-04-18T02:27:13.429Z,20.60
2024-04-18T02:28:13.400Z,20.63
2024-04-18T02:29:34.434Z,20.63
2024-04-18T02:30:13.427Z,20.63
2024-04-18T02:31:13.421Z,20.59
2024-04-18T02:32:35.236Z,20.59
2024-04-18T02:33:13.589Z,20.57
2024-04-18T02:34:13.415Z,20.65
2024-04-18T02:35:13.419Z,20.61
2024-04-18T02:36:13.450Z,20.60
2024-04-18T02:37:13.418Z,20.61
2024-04-18T02:38:13.417Z,20.59
2024-04-18T02:39:13.455Z,20.61
2024-04-18T02:40:13.422Z,20.59
2024-04-18T02:41:13.422Z,20.57
2024-04-18T02:42:13.441Z,20.63
2024-04-18T02:43:13.425Z,20.57
2024-04-18T02:44:13.430Z,20.63
2024-04-18T02:45:13.439Z,20.59
2024-04-18T02:46:13.432Z,20.63
2024-04-18T02:47:14.146Z,20.60
2024-04-18T02:48:20.145Z,20.61
2024-04-18T02:49:13.449Z,20.61
2024-04-18T02:50:13.456Z,20.60
2024-04-18T02:51:15.142Z,20.59
2024-04-18T02:52:13.445Z,20.59
2024-04-18T02:53:13.447Z,20.65
2024-04-18T02:54:34.489Z,20.63
2024-04-18T02:55:13.448Z,20.59
2024-04-18T02:56:13.461Z,20.61
2024-04-18T02:57:41.124Z,20.60
2024-04-18T02:58:13.464Z,20.63
2024-04-18T02:59:13.459Z,20.65
2024-04-18T03:00:45.317Z,20.61
2024-04-18T03:01:13.514Z,20.59
2024-04-18T03:02:13.484Z,20.57
2024-04-18T03:03:13.509Z,20.59
2024-04-18T03:04:13.514Z,20.60
2024-04-18T03:05:13.469Z,20.61
2024-04-18T03:06:13.489Z,20.61
2024-04-18T03:07:13.474Z,20.60
2024-04-18T03:08:13.485Z,20.58
2024-04-18T03:09:13.593Z,20.57
2024-04-18T03:10:13.506Z,20.61
2024-04-18T03:11:13.499Z,20.60
2024-04-18T03:12:13.477Z,20.59
2024-04-18T03:13:13.482Z,20.59
2024-04-18T03:14:13.495Z,20.63
2024-04-18T03:15:13.521Z,20.60
2024-04-18T03:16:13.489Z,20.60
2024-04-18T03:17:13.517Z,20.59
2024-04-18T03:18:13.628Z,20.61
2024-04-18T03:19:13.563Z,20.66
2024-04-18T03:20:13.515Z,20.60
2024-04-18T03:21:13.524Z,20.60
2024-04-18T03:22:28.127Z,20.57
2024-04-18T03:23:13.746Z,20.60
2024-04-18T03:24:13.781Z,20.58
2024-04-18T03:25:34.779Z,20.61
2024-04-18T03:26:13.768Z,20.59
2024-04-18T03:27:13.798Z,20.55
2024-04-18T03:28:13.760Z,20.59
2024-04-18T03:29:13.768Z,20.58
2024-04-18T03:30:13.798Z,20.54
2024-04-18T03:31:13.778Z,20.59
2024-04-18T03:32:13.810Z,20.54
2024-04-18T03:33:13.830Z,20.55
2024-04-18T03:34:13.773Z,20.55
2024-04-18T03:35:13.776Z,20.60
2024-04-18T03:36:13.813Z,20.60
2024-04-18T03:37:13.781Z,20.61
2024-04-18T03:38:13.783Z,20.61
2024-04-18T03:39:13.854Z,20.57
2024-04-18T03:40:13.785Z,20.57
2024-04-18T03:41:19.146Z,20.66
2024-04-18T03:42:13.813Z,20.61
2024-04-18T03:43:13.792Z,20.60
2024-04-18T03:44:13.789Z,20.60
2024-04-18T03:45:13.815Z,20.61
2024-04-18T03:46:13.800Z,20.64
2024-04-18T03:47:32.202Z,20.58
2024-04-18T03:48:13.923Z,20.61
2024-04-18T03:49:13.848Z,20.58
2024-04-18T03:50:41.640Z,20.63
2024-04-18T03:51:13.890Z,20.63
2024-04-18T03:52:13.821Z,20.64
2024-04-18T03:53:49.653Z,20.67
2024-04-18T03:54:13.847Z,20.61
2024-04-18T03:55:13.864Z,20.61
2024-04-18T03:56:13.853Z,20.67
2024-04-18T03:57:13.866Z,20.67
2024-04-18T03:58:13.833Z,20.64
2024-04-18T03:59:13.832Z,20.60
2024-04-18T04:00:14.053Z,20.63
2024-04-18T04:01:13.990Z,20.64
2024-04-18T04:02:13.863Z,20.64
2024-04-18T04:03:13.868Z,20.63
2024-04-18T04:04:13.921Z,20.61
2024-04-18T04:05:13.858Z,20.61
2024-04-18T04:06:13.880Z,20.69
2024-04-18T04:07:13.843Z,20.67
2024-04-18T04:08:13.842Z,20.66
2024-04-18T04:09:13.875Z,20.67
2024-04-18T04:10:13.845Z,20.63
2024-04-18T04:11:13.877Z,20.69
2024-04-18T04:12:13.925Z,20.67
2024-04-18T04:13:13.852Z,20.64
2024-04-18T04:14:13.854Z,20.61
2024-04-18T04:15:34.882Z,20.67
2024-04-18T04:16:13.891Z,20.70
2024-04-18T04:17:13.875Z,20.70
2024-04-18T04:18:34.970Z,20.69
2024-04-18T04:19:13.948Z,20.67
2024-04-18T04:20:13.862Z,20.72
2024-04-18T04:21:13.882Z,20.73
2024-04-18T04:22:13.885Z,20.64
2024-04-18T04:23:13.875Z,20.67
2024-04-18T04:24:13.893Z,20.64
2024-04-18T04:25:13.868Z,20.66
2024-04-18T04:26:13.879Z,20.73
2024-04-18T04:27:13.902Z,20.67
2024-04-18T04:28:13.900Z,20.67
2024-04-18T04:29:13.872Z,20.72
2024-04-18T04:30:13.880Z,20.69
2024-04-18T04:31:13.873Z,20.69
2024-04-18T04:32:13.922Z,20.67
2024-04-18T04:33:13.881Z,20.70
2024-04-18T04:34:21.156Z,20.78
2024-04-18T04:35:21.156Z,20.76
2024-04-18T04:36:23.279Z,20.75
2024-04-18T04:37:21.275Z,20.72
2024-04-18T04:38:21.263Z,20.72
2024-04-18T04:39:21.281Z,20.78
2024-04-18T04:40:24.264Z,20.73
2024-04-18T04:41:21.266Z,20.73
2024-04-18T04:42:21.314Z,20.76
2024-04-18T04:43:21.285Z,20.73
2024-04-18T04:44:21.298Z,20.75
2024-04-18T04:45:21.280Z,20.73
2024-04-18T04:46:39.765Z,20.75
2024-04-18T04:47:21.270Z,20.75
2024-04-18T04:48:21.437Z,20.80
2024-04-18T04:49:42.351Z,20.78
2024-04-18T04:50:21.272Z,20.73
2024-04-18T04:51:21.282Z,20.80
2024-04-18T04:52:21.295Z,20.80
2024-04-18T04:53:21.277Z,20.82
2024-04-18T04:54:21.309Z,20.78
2024-04-18T04:55:21.284Z,20.82
2024-04-18T04:56:21.314Z,20.84
2024-04-18T04:57:21.311Z,20.81
2024-04-18T04:58:21.291Z,20.83
2024-04-18T04:59:21.293Z,20.77
2024-04-18T05:00:21.297Z,20.79
2024-04-18T05:01:21.327Z,20.84
2024-04-18T05:02:22.286Z,20.80
2024-04-18T05:03:21.358Z,20.80
2024-04-18T05:04:21.415Z,20.82
2024-04-18T05:05:36.256Z,20.80
2024-04-18T05:06:21.304Z,20.78
2024-04-18T05:07:21.327Z,20.83
2024-04-18T05:08:24.264Z,20.83
2024-04-18T05:09:21.359Z,20.81
2024-04-18T05:10:21.323Z,20.81
2024-04-18T05:11:32.286Z,20.87
2024-04-18T05:12:21.339Z,20.83
2024-04-18T05:13:21.316Z,20.81
2024-04-18T05:14:42.320Z,20.83
2024-04-18T05:15:21.323Z,20.84
2024-04-18T05:16:24.207Z,20.77
2024-04-18T05:17:21.333Z,20.78
2024-04-18T05:18:21.339Z,20.77
2024-04-18T05:19:21.331Z,20.78
2024-04-18T05:20:21.340Z,20.80
2024-04-18T05:21:21.374Z,20.78
2024-04-18T05:22:21.343Z,20.76
2024-04-18T05:23:21.346Z,20.74
2024-04-18T05:24:21.385Z,20.72
2024-04-18T05:25:21.350Z,20.74
2024-04-18T05:26:21.821Z,20.77
2024-04-18T05:27:21.436Z,20.80
2024-04-18T05:28:21.434Z,20.76
2024-04-18T05:29:21.357Z,20.81
2024-04-18T05:30:21.371Z,21.29
2024-04-18T05:31:21.815Z,21.71
2024-04-18T05:32:21.390Z,22.20
2024-04-18T05:33:21.436Z,22.33
2024-04-18T05:34:21.384Z,22.45
2024-04-18T05:35:21.367Z,23.48
2024-04-18T05:36:42.404Z,23.20
2024-04-18T05:37:23.160Z,23.92
2024-04-18T05:38:21.379Z,24.01
2024-04-18T05:39:49.373Z,24.30
2024-04-18T05:40:21.407Z,24.39
2024-04-18T05:41:21.821Z,24.64
2024-04-18T05:42:49.388Z,24.54
2024-04-18T05:43:21.397Z,24.53
2024-04-18T05:44:21.383Z,24.61
2024-04-18T05:45:21.425Z,24.84
2024-04-18T05:46:21.386Z,24.94
2024-04-18T05:47:21.476Z,25.26
2024-04-18T05:48:21.450Z,25.13
2024-04-18T05:49:21.397Z,24.86
2024-04-18T05:50:21.398Z,25.05
2024-04-18T05:51:21.429Z,24.78
2024-04-18T05:52:21.392Z,25.17
2024-04-18T05:53:21.410Z,25.03
2024-04-18T05:54:21.427Z,24.68
2024-04-18T05:55:21.411Z,24.33
2024-04-18T05:56:21.431Z,24.22
2024-04-18T05:57:21.474Z,24.33
2024-04-18T05:58:21.404Z,24.44
2024-04-18T05:59:21.448Z,24.56
2024-04-18T06:00:21.452Z,24.60
2024-04-18T06:01:26.854Z,24.61
2024-04-18T06:02:21.563Z,24.22
2024-04-18T06:03:21.584Z,24.15
2024-04-18T06:04:36.354Z,24.09
2024-04-18T06:05:21.583Z,24.13
2024-04-18T06:06:21.627Z,24.03
2024-04-18T06:07:46.231Z,24.09
2024-04-18T06:08:21.587Z,24.09
2024-04-18T06:09:21.662Z,23.98
2024-04-18T06:10:21.640Z,23.81
2024-04-18T06:11:21.613Z,23.88
2024-04-18T06:12:21.636Z,23.70
2024-04-18T06:13:21.637Z,23.77
2024-04-18T06:14:21.587Z,23.75
2024-04-18T06:15:21.635Z,24.12
2024-04-18T06:16:21.634Z,24.48
2024-04-18T06:17:21.597Z,24.56
2024-04-18T06:18:21.628Z,24.49
2024-04-18T06:19:21.605Z,24.61
2024-04-18T06:20:21.604Z,24.54
2024-04-18T06:21:21.635Z,24.54
2024-04-18T06:22:21.625Z,24.48
2024-04-18T06:23:28.296Z,24.48
2024-04-18T06:24:21.709Z,24.16
2024-04-18T06:25:21.615Z,24.21
2024-04-18T06:26:21.621Z,24.26
2024-04-18T06:27:21.623Z,24.32
2024-04-18T06:28:21.608Z,24.30
2024-04-18T06:29:37.812Z,24.34
2024-04-18T06:30:21.862Z,24.41
2024-04-18T06:31:22.306Z,24.53
2024-04-18T06:32:46.342Z,24.70
2024-04-18T06:33:22.002Z,24.77
2024-04-18T06:34:21.920Z,24.80
2024-04-18T06:35:56.199Z,24.72
2024-04-18T06:36:22.332Z,24.60
2024-04-18T06:37:21.920Z,24.70
2024-04-18T06:38:21.929Z,24.65
2024-04-18T06:39:21.951Z,24.58
2024-04-18T06:40:21.920Z,24.38
2024-04-18T06:41:21.929Z,23.94
2024-04-18T06:42:21.931Z,23.75
2024-04-18T06:43:24.883Z,23.52
2024-04-18T06:44:21.931Z,23.42
2024-04-18T06:45:21.955Z,23.32
2024-04-18T06:46:22.061Z,23.54
2024-04-18T06:47:21.970Z,23.06
2024-04-18T06:48:22.018Z,23.09
2024-04-18T06:49:21.944Z,23.00
2024-04-18T06:50:25.301Z,22.65
2024-04-18T06:51:21.951Z,22.51
2024-04-18T06:52:21.946Z,22.71
2024-04-18T06:53:21.944Z,22.95
2024-04-18T06:54:22.003Z,22.97
2024-04-18T06:55:21.954Z,22.92
2024-04-18T06:56:23.245Z,22.93
2024-04-18T06:57:28.829Z,22.87
2024-04-18T06:58:21.964Z,23.09
2024-04-18T06:59:21.964Z,22.99
2024-04-18T07:00:43.080Z,23.05
2024-04-18T07:01:22.090Z,23.16
2024-04-18T07:02:21.966Z,23.22
2024-04-18T07:03:22.076Z,23.33
2024-04-18T07:04:22.048Z,23.14
2024-04-18T07:05:21.980Z,22.61
2024-04-18T07:06:22.002Z,22.52
2024-04-18T07:07:21.975Z,22.50
2024-04-18T07:08:21.974Z,22.41
2024-04-18T07:09:22.007Z,22.29
2024-04-18T07:10:21.972Z,22.26
2024-04-18T07:11:22.045Z,22.18
2024-04-18T07:12:21.992Z,22.21
2024-04-18T07:13:21.988Z,22.14
2024-04-18T07:14:21.972Z,22.17
2024-04-18T07:15:22.003Z,22.09
2024-04-18T07:16:22.031Z,22.13
2024-04-18T07:17:21.980Z,22.18
2024-04-18T07:18:22.094Z,22.09
2024-04-18T07:19:38.340Z,22.08
2024-04-18T07:20:21.988Z,22.13
2024-04-18T07:21:22.021Z,22.22
2024-04-18T07:22:40.330Z,22.25
2024-04-18T07:23:22.003Z,22.29
2024-04-18T07:24:22.019Z,22.28
2024-04-18T07:25:29.398Z,22.32
2024-04-18T07:26:21.993Z,22.34
2024-04-18T07:27:22.022Z,22.70
2024-04-18T07:28:43.008Z,22.49
2024-04-18T07:29:22.004Z,22.48
2024-04-18T07:30:22.036Z,22.69
2024-04-18T07:31:22.020Z,22.89
2024-04-18T07:32:22.070Z,22.94
2024-04-18T07:33:22.193Z,23.13
2024-04-18T07:34:22.151Z,23.18
2024-04-18T07:35:22.011Z,23.10
2024-04-18T07:36:22.031Z,23.18
2024-04-18T07:37:22.009Z,23.18
2024-04-18T07:38:22.008Z,23.25
2024-04-18T07:39:22.118Z,23.29
2024-04-18T07:40:22.016Z,23.32
2024-04-18T07:41:22.022Z,23.32
2024-04-18T07:42:22.045Z,23.40
2024-04-18T07:43:24.872Z,23.41
2024-04-18T07:44:28.837Z,23.33
2024-04-18T07:45:22.037Z,23.53
2024-04-18T07:46:22.023Z,23.46
2024-04-18T07:47:22.066Z,23.40
2024-04-18T07:48:22.143Z,23.43
2024-04-18T07:49:22.094Z,23.48
2024-04-18T07:50:43.042Z,23.58
2024-04-18T07:51:22.079Z,23.54
2024-04-18T07:52:22.177Z,23.44
2024-04-18T07:53:38.358Z,23.26
2024-04-18T07:54:22.091Z,23.32
2024-04-18T07:55:22.836Z,23.19
2024-04-18T07:56:22.472Z,23.21
2024-04-18T07:57:22.526Z,23.24
2024-04-18T07:58:22.421Z,23.25
2024-04-18T07:59:22.647Z,23.13
2024-04-18T08:00:23.083Z,23.25
2024-04-18T08:01:23.597Z,23.31
2024-04-18T08:02:23.847Z,23.31
2024-04-18T08:03:24.260Z,23.34
2024-04-18T08:04:44.609Z,23.20
2024-04-18T08:05:25.419Z,23.20
2024-04-18T08:06:25.127Z,23.27
2024-04-18T08:07:24.722Z,23.05
2024-04-18T08:08:25.447Z,23.19
2024-04-18T08:10:24.812Z,23.32
2024-04-18T08:11:52.995Z,23.26
2024-04-18T08:12:27.857Z,23.34
2024-04-18T08:13:27.419Z,23.30
2024-04-18T08:14:27.487Z,23.35
2024-04-18T08:16:23.551Z,23.35
2024-04-18T08:17:22.661Z,23.43
2024-04-18T08:18:53.839Z,23.54
2024-04-18T08:19:22.474Z,23.48
2024-04-18T08:20:22.463Z,23.46
2024-04-18T08:21:25.866Z,23.24
2024-04-18T08:22:22.501Z,23.79
2024-04-18T08:23:22.468Z,24.11
2024-04-18T08:24:22.520Z,24.49
2024-04-18T08:25:22.471Z,24.52
2024-04-18T08:26:22.485Z,24.70
2024-04-18T08:27:22.489Z,24.93
2024-04-18T08:28:22.515Z,25.55
2024-04-18T08:29:22.488Z,25.64
2024-04-18T08:30:22.523Z,25.60
2024-04-18T08:31:22.509Z,25.90
2024-04-18T08:32:22.498Z,26.02
2024-04-18T08:33:22.536Z,26.52
2024-04-18T08:34:24.295Z,26.38
2024-04-18T08:35:22.496Z,26.66
2024-04-18T08:36:22.509Z,26.53
2024-04-18T08:37:36.872Z,26.44
2024-04-18T08:38:22.496Z,26.68
2024-04-18T08:39:22.568Z,26.67
2024-04-18T08:40:39.936Z,26.70
2024-04-18T08:41:22.596Z,26.66
2024-04-18T08:42:22.644Z,26.62
2024-04-18T08:43:37.357Z,26.65
2024-04-18T08:44:22.655Z,26.48
2024-04-18T08:45:22.696Z,26.40
2024-04-18T08:46:43.912Z,26.35
2024-04-18T08:47:22.674Z,26.34
2024-04-18T08:48:22.876Z,26.20
2024-04-18T08:49:22.768Z,25.95
2024-04-18T08:50:22.679Z,25.87
2024-04-18T08:51:22.678Z,25.76
2024-04-18T08:52:22.653Z,25.68
2024-04-18T08:53:22.688Z,25.55
2024-04-18T08:54:22.690Z,25.56
2024-04-18T08:55:22.664Z,25.41
2024-04-18T08:56:22.662Z,25.36
2024-04-18T08:57:22.765Z,25.25
2024-04-18T08:58:22.660Z,25.22
2024-04-18T08:59:22.671Z,24.92
2024-04-18T09:00:22.694Z,24.91
2024-04-18T09:01:22.668Z,24.89
2024-04-18T09:02:22.706Z,24.91
2024-04-18T09:03:22.681Z,24.75
2024-04-18T09:04:22.790Z,24.66
2024-04-18T09:05:22.739Z,24.63
2024-04-18T09:06:22.727Z,24.60
2024-04-18T09:07:22.669Z,24.59
2024-04-18T09:08:37.365Z,24.55
2024-04-18T09:09:22.739Z,24.52
2024-04-18T09:10:22.674Z,24.49
2024-04-18T09:11:43.690Z,24.46
2024-04-18T09:12:22.747Z,24.39
2024-04-18T09:13:24.262Z,24.41
2024-04-18T09:14:38.883Z,23.35
2024-04-18T09:15:22.717Z,22.18
2024-04-18T09:16:22.695Z,22.18
2024-04-18T09:17:22.778Z,21.80
2024-04-18T09:18:22.761Z,21.64
2024-04-18T09:19:22.773Z,21.74
2024-04-18T09:20:22.706Z,22.16
2024-04-18T09:21:22.719Z,21.83
2024-04-18T09:22:22.723Z,21.60
2024-04-18T09:23:22.710Z,21.54
2024-04-18T09:24:22.755Z,21.66
2024-04-18T09:25:22.724Z,21.71
2024-04-18T09:26:22.710Z,22.58
2024-04-18T09:27:23.467Z,23.00
2024-04-18T09:28:22.721Z,23.08
2024-04-18T09:29:22.715Z,23.12
2024-04-18T09:30:29.443Z,22.86
2024-04-18T09:31:30.385Z,22.34
2024-04-18T09:32:23.897Z,22.43
2024-04-18T09:33:23.458Z,22.34
2024-04-18T09:34:22.815Z,22.19
2024-04-18T09:35:22.746Z,22.23
2024-04-18T09:36:43.866Z,21.85
2024-04-18T09:37:22.744Z,21.82
2024-04-18T09:38:22.734Z,21.95
2024-04-18T09:39:43.864Z,21.53
2024-04-18T09:40:22.765Z,21.95
2024-04-18T09:41:22.742Z,21.86
2024-04-18T09:42:22.796Z,21.93
2024-04-18T09:43:22.733Z,22.00
2024-04-18T09:44:23.847Z,22.19
2024-04-18T09:45:22.937Z,22.27
2024-04-18T09:46:22.757Z,21.85
2024-04-18T09:47:22.752Z,22.05
2024-04-18T09:48:22.875Z,21.88
2024-04-18T09:49:22.852Z,21.75
2024-04-18T09:50:22.772Z,21.51
2024-04-18T09:51:22.784Z,21.43
2024-04-18T09:52:22.757Z,21.46
2024-04-18T09:53:22.754Z,21.19
2024-04-18T09:54:22.790Z,20.91
2024-04-18T09:55:25.228Z,20.76
2024-04-18T09:56:22.868Z,20.74
2024-04-18T09:57:22.851Z,20.72
2024-04-18T09:58:22.842Z,20.49
2024-04-18T09:59:22.846Z,20.99
2024-04-18T10:00:22.861Z,21.09
2024-04-18T10:01:37.516Z,21.15
2024-04-18T10:02:22.912Z,21.03
2024-04-18T10:03:22.910Z,20.87
2024-04-18T10:04:43.852Z,20.92
2024-04-18T10:05:22.873Z,21.09
2024-04-18T10:06:22.926Z,21.00
2024-04-18T10:07:51.407Z,20.84
2024-04-18T10:08:22.863Z,20.81
2024-04-18T10:09:22.909Z,20.76
2024-04-18T10:10:22.870Z,20.86
2024-04-18T10:11:22.938Z,20.76
2024-04-18T10:12:22.922Z,20.83
2024-04-18T10:13:23.062Z,20.83
2024-04-18T10:14:22.885Z,20.83
2024-04-18T10:15:22.951Z,20.59
2024-04-18T10:16:22.883Z,20.71
2024-04-18T10:17:22.923Z,20.46
2024-04-18T10:18:22.974Z,20.94
2024-04-18T10:19:23.025Z,21.16
2024-04-18T10:20:22.901Z,21.41
2024-04-18T10:21:32.031Z,21.51
2024-04-18T10:22:29.823Z,22.26
2024-04-18T10:23:38.462Z,22.32
2024-04-18T10:24:22.902Z,22.66
2024-04-18T10:25:22.905Z,23.15
2024-04-18T10:26:29.411Z,22.76
2024-04-18T10:27:22.964Z,22.20
2024-04-18T10:28:22.912Z,22.02
2024-04-18T10:29:22.906Z,21.88
2024-04-18T10:30:22.961Z,21.47
2024-04-18T10:31:22.905Z,21.50
2024-04-18T10:32:36.994Z,21.41
2024-04-18T10:33:23.025Z,21.46
2024-04-18T10:34:22.924Z,21.51
2024-04-18T10:35:22.914Z,21.48
2024-04-18T10:36:22.956Z,21.26
2024-04-18T10:37:22.924Z,21.28
2024-04-18T10:38:22.992Z,21.14
2024-04-18T10:39:22.959Z,20.92
2024-04-18T10:40:22.926Z,20.56
2024-04-18T10:41:22.915Z,20.63
2024-04-18T10:42:23.021Z,20.81
2024-04-18T10:43:22.942Z,20.78
2024-04-18T10:44:22.936Z,20.70
2024-04-18T10:45:22.961Z,20.70
2024-04-18T10:46:22.988Z,20.39
2024-04-18T10:47:23.195Z,20.26
2024-04-18T10:48:23.144Z,20.06
2024-04-18T10:49:23.140Z,19.79
2024-04-18T10:50:23.092Z,19.86
2024-04-18T10:51:23.206Z,20.04
2024-04-18T10:52:23.153Z,20.24
2024-04-18T10:53:23.193Z,20.47
2024-04-18T10:54:38.054Z,20.54
2024-04-18T10:55:23.232Z,20.60
2024-04-18T10:56:23.218Z,20.60
2024-04-18T10:57:41.483Z,20.60
2024-04-18T10:58:23.234Z,20.54
2024-04-18T10:59:23.219Z,20.48
2024-04-18T11:00:44.280Z,20.38
2024-04-18T11:01:23.289Z,20.30
2024-04-18T11:02:23.302Z,20.36
2024-04-18T11:03:23.297Z,20.25
2024-04-18T11:04:23.365Z,20.04
2024-04-18T11:05:23.248Z,20.02
2024-04-18T11:06:23.279Z,19.71
2024-04-18T11:07:23.888Z,19.60
2024-04-18T11:08:23.297Z,19.45
2024-04-18T11:09:23.307Z,19.39
2024-04-18T11:10:23.252Z,19.49
2024-04-18T11:11:23.283Z,19.72
2024-04-18T11:12:23.331Z,19.60
2024-04-18T11:13:23.249Z,19.95
2024-04-18T11:14:23.255Z,20.08
2024-04-18T11:15:23.487Z,20.28
2024-04-18T11:16:37.936Z,20.45
2024-04-18T11:17:23.344Z,20.54
2024-04-18T11:18:23.470Z,20.77
2024-04-18T11:19:25.971Z,20.77
2024-04-18T11:20:23.265Z,20.86
2024-04-18T11:21:23.357Z,20.87
2024-04-18T11:22:33.949Z,20.98
2024-04-18T11:23:29.211Z,20.98
2024-04-18T11:24:24.282Z,21.00
2024-04-18T11:25:37.937Z,20.92
2024-04-18T11:26:23.276Z,20.82
2024-04-18T11:27:23.300Z,20.79
2024-04-18T11:28:23.267Z,20.76
2024-04-18T11:29:23.268Z,20.64
2024-04-18T11:30:23.283Z,20.56
2024-04-18T11:31:23.346Z,20.24
2024-04-18T11:32:23.418Z,19.95
2024-04-18T11:33:23.343Z,20.12
2024-04-18T11:34:23.276Z,20.35
2024-04-18T11:35:23.278Z,20.26
2024-04-18T11:36:23.305Z,20.32
2024-04-18T11:37:23.298Z,20.29
2024-04-18T11:38:23.293Z,20.30
2024-04-18T11:39:23.318Z,20.36
2024-04-18T11:40:23.294Z,20.36
2024-04-18T11:41:23.291Z,20.33
2024-04-18T11:42:23.321Z,20.33
2024-04-18T11:43:23.293Z,20.33
2024-04-18T11:44:23.295Z,20.30
2024-04-18T11:45:23.368Z,20.18
2024-04-18T11:46:23.320Z,20.03
2024-04-18T11:47:31.072Z,20.10
2024-04-18T11:48:23.422Z,20.09
2024-04-18T11:49:23.320Z,20.15
2024-04-18T11:50:23.319Z,19.86
2024-04-18T11:51:23.348Z,19.96
2024-04-18T11:52:23.309Z,20.09
2024-04-18T11:53:58.948Z,20.03
2024-04-18T11:54:23.601Z,20.10
2024-04-18T11:55:23.630Z,19.83
2024-04-18T11:56:23.664Z,19.76
2024-04-18T11:57:23.755Z,19.65
2024-04-18T11:58:23.737Z,19.83
2024-04-18T11:59:23.797Z,19.58
2024-04-18T12:00:23.815Z,19.56
2024-04-18T12:01:23.802Z,19.55
2024-04-18T12:02:24.622Z,19.70
2024-04-18T12:03:23.868Z,19.89
2024-04-18T12:04:23.944Z,19.94
2024-04-18T12:05:23.867Z,19.79
2024-04-18T12:06:23.909Z,19.73
2024-04-18T12:07:23.895Z,19.62
2024-04-18T12:08:23.907Z,19.51
2024-04-18T12:09:38.577Z,19.54
2024-04-18T12:10:24.155Z,19.60
2024-04-18T12:11:24.183Z,19.64
2024-04-18T12:12:27.484Z,19.69
2024-04-18T12:13:24.181Z,19.65
2024-04-18T12:14:24.181Z,19.59
2024-04-18T12:15:45.261Z,19.56
2024-04-18T12:16:24.208Z,19.58
2024-04-18T12:17:24.189Z,19.56
2024-04-18T12:18:51.959Z,19.51
2024-04-18T12:19:24.194Z,19.53
2024-04-18T12:20:24.213Z,19.61
2024-04-18T12:21:24.208Z,19.51
2024-04-18T12:22:24.191Z,19.61
2024-04-18T12:23:24.204Z,19.67
2024-04-18T12:24:24.307Z,19.64
2024-04-18T12:25:24.194Z,19.64
2024-04-18T12:26:24.252Z,19.67
2024-04-18T12:27:24.202Z,19.67
2024-04-18T12:28:24.228Z,19.69
2024-04-18T12:29:24.238Z,19.70
2024-04-18T12:30:26.162Z,19.73
2024-04-18T12:31:24.205Z,19.71
2024-04-18T12:32:24.212Z,19.73
2024-04-18T12:33:24.435Z,19.76
2024-04-18T12:34:24.214Z,19.74
2024-04-18T12:35:24.210Z,19.71
2024-04-18T12:37:34.981Z,19.82
2024-04-18T12:38:24.241Z,19.72
2024-04-18T12:39:24.251Z,19.65
2024-04-18T12:40:38.984Z,19.52
2024-04-18T12:41:24.223Z,19.41
2024-04-18T12:42:24.266Z,19.32
2024-04-18T12:43:38.993Z,19.23
2024-04-18T12:44:24.248Z,19.42
2024-04-18T12:45:24.302Z,19.50
2024-04-18T12:46:39.024Z,19.44
2024-04-18T12:47:24.256Z,19.20
2024-04-18T12:48:24.425Z,19.17
2024-04-18T12:49:24.307Z,19.24
2024-04-18T12:50:24.279Z,19.26
2024-04-18T12:51:24.379Z,19.15
2024-04-18T12:52:24.275Z,19.04
2024-04-18T12:53:24.261Z,19.08
2024-04-18T12:54:24.275Z,19.09
2024-04-18T12:55:24.250Z,18.96